Time;durP1;ratioP1;P1;durP2;ratioP2;P2;SDS_P1;SDS_P2;PMS_P1;PMS_P2;Temp;Humidity;BMP_temperature;BMP_pressure;BME280_temperature;BME280_humidity;BME280_pressure;Samples;Min_cycle;Max_cycle;Signal;HPM_P1;HPM_P2
2022/03/03 00:16:40;;;;;;;;;;;;;;;;;;;;;
2022/03/03 00:19:17;;;;;;;;;;;8.00;99.90;;;;;;5003203;28;20021;-93
2022/03/03 00:22:09;;;;;;;;;;;7.80;99.90;;;;;;5009112;28;19934;-93
2022/03/03 00:28:00;;;;;;;;;;;8.00;99.90;;;;;;4987007;28;19933;-93
2022/03/03 00:33:33;;;;;;;;;;;8.00;99.90;;;;;;5008661;28;19941;-93
2022/03/03 00:36:17;;;;;;;;;;;8.20;99.90;;;;;;5010464;28;19953;-93
2022/03/03 00:38:56;;;;;;;;;;;8.80;99.90;;;;;;5007152;28;19949;-93
2022/03/03 00:41:29;;;;;;;;;;;8.70;99.90;;;;;;5009895;28;19930;-93
2022/03/03 00:44:12;;;;;;;;;;;;;;;;;;;;;
2022/03/03 00:46:51;;;;;;;;;;;8.40;99.90;;;;;;5009247;28;19932;-93
2022/03/03 00:52:38;;;;;;;;;;;7.20;99.90;;;;;;4984609;28;19930;-92
2022/03/03 00:55:21;;;;;;;;;;;8.20;99.90;;;;;;4967944;28;19957;-92
2022/03/03 00:57:48;;;;;;;;;;;8.30;99.90;;;;;;4986697;28;19933;-93
2022/03/03 01:00:34;;;;;;;;;;;;;;;;;;;;;
2022/03/03 01:05:47;;;;;;;;;;;10.50;99.90;;;;;;4984104;28;19934;-94
2022/03/03 01:08:19;;;;;;;;;;;8.10;99.90;;;;;;4983829;28;19934;-93
2022/03/03 01:11:22;;;;;;;;;;;8.10;99.90;;;;;;4984042;28;20392;-94
2022/03/03 01:14:07;;;;;;;;;;;8.10;99.90;;;;;;4984074;28;19980;-92
2022/03/03 01:16:46;;;;;;;;;;;8.00;99.90;;;;;;4982978;28;19937;-93
2022/03/03 01:19:40;;;;;;;;;;;6.90;99.90;;;;;;4983601;28;19934;-93
2022/03/03 01:22:22;;;;;;;;;;;;;;;;;;;;;
2022/03/03 01:24:58;;;;;;;;;;;8.50;99.90;;;;;;4984349;28;19933;-94
2022/03/03 01:27:45;;;;;;;;;;;8.80;99.90;;;;;;4998713;28;19926;-93
2022/03/03 01:30:13;;;;;;;;;;;8.30;99.90;;;;;;5005883;28;20383;-94
2022/03/03 01:32:46;;;;;;;;;;;7.80;99.90;;;;;;5003337;28;20372;-92
2022/03/03 01:35:33;;;;;;;;;;;7.80;99.90;;;;;;5003505;28;19930;-92
2022/03/03 01:38:22;;;;;;;;;;;8.30;99.90;;;;;;4996281;28;19964;-92
2022/03/03 01:40:51;;;;;;;;;;;8.10;99.90;;;;;;5004079;28;19934;-94
2022/03/03 01:43:25;;;;;;;;;;;7.50;99.90;;;;;;5003162;28;19934;-91
2022/03/03 01:45:58;;;;;;;;;;;8.10;99.90;;;;;;4995277;28;20288;-92
2022/03/03 01:48:32;;;;;;;;;;;6.70;99.90;;;;;;5002886;28;19993;-91
2022/03/03 01:51:15;;;;;;;;;;;10.20;99.90;;;;;;5002901;28;20435;-92
2022/03/03 01:53:42;;;;;;;;;;;8.50;99.90;;;;;;5002981;28;20004;-90
2022/03/03 01:56:23;;;;;;;;;;;8.20;99.90;;;;;;5003537;28;20372;-92
2022/03/03 01:59:00;;;;;;;;;;;7.90;99.90;;;;;;4995995;28;19926;-92
2022/03/03 02:01:56;;;;;;;;;;;;;;;;;;;;;
2022/03/03 02:04:31;;;;;;;;;;;7.90;99.90;;;;;;5003770;28;19930;-92
2022/03/03 02:07:00;;;;;;;;;;;8.20;99.90;;;;;;4996432;28;19953;-92
2022/03/03 02:09:33;;;;;;;;;;;8.10;99.90;;;;;;5003665;28;19928;-93
2022/03/03 02:12:04;;;;;;;;;;;7.20;99.90;;;;;;5001729;28;19925;-92
2022/03/03 02:15:08;;;;;;;;;;;8.30;99.90;;;;;;5005038;28;20004;-93
2022/03/03 02:17:49;;;;;;;;;;;8.00;99.90;;;;;;5005331;28;19993;-92
2022/03/03 02:20:34;;;;;;;;;;;8.00;99.90;;;;;;5004750;28;19948;-93
2022/03/03 02:23:25;;;;;;;;;;;7.90;99.90;;;;;;4994371;28;19926;-93
2022/03/03 02:26:08;;;;;;;;;;;7.80;99.90;;;;;;4996461;28;19926;-94
2022/03/03 02:28:48;;;;;;;;;;;;;;;;;;;;;
2022/03/03 02:34:04;;;;;;;;;;;8.30;99.90;;;;;;4995147;28;20312;-92
2022/03/03 02:36:31;;;;;;;;;;;7.90;99.90;;;;;;5004122;28;19925;-92
2022/03/03 02:39:14;;;;;;;;;;;6.80;99.90;;;;;;5004384;28;19932;-94
2022/03/03 02:41:42;;;;;;;;;;;6.70;99.90;;;;;;5003716;28;19926;-93
2022/03/03 02:44:23;;;;;;;;;;;7.70;99.90;;;;;;5003753;28;20277;-92
2022/03/03 02:46:52;;;;;;;;;;;8.00;99.90;;;;;;5002805;28;20020;-92
2022/03/03 02:49:29;;;;;;;;;;;11.40;99.90;;;;;;5002794;28;19925;-93
2022/03/03 02:52:14;;;;;;;;;;;8.70;99.90;;;;;;5014426;23;20400;-92
2022/03/03 02:54:49;;;;;;;;;;;6.40;99.90;;;;;;5009402;28;19926;-90
2022/03/03 03:00:25;;;;;;;;;;;8.30;99.90;;;;;;5003527;28;19926;-94
2022/03/03 03:03:01;;;;;;;;;;;8.00;99.90;;;;;;4989608;28;19948;-92
2022/03/03 03:05:43;;;;;;;;;;;8.30;99.90;;;;;;4989636;28;19956;-93
2022/03/03 03:08:13;;;;;;;;;;;8.30;99.90;;;;;;4989412;28;19933;-93
2022/03/03 03:10:49;;;;;;;;;;;8.30;99.90;;;;;;4988694;28;19926;-93
2022/03/03 03:13:17;;;;;;;;;;;7.90;99.90;;;;;;5018294;23;19926;-92
2022/03/03 03:15:48;;;;;;;;;;;8.30;99.90;;;;;;5008367;28;19933;-92
2022/03/03 03:18:16;;;;;;;;;;;8.30;99.90;;;;;;5008908;28;19989;-92
2022/03/03 03:20:51;;;;;;;;;;;8.20;99.90;;;;;;5009385;28;19926;-92
2022/03/03 03:23:37;;;;;;;;;;;8.10;99.90;;;;;;5009700;28;19960;-93
2022/03/03 03:26:09;;;;;;;;;;;8.20;99.90;;;;;;5009662;28;19926;-93
2022/03/03 03:28:54;;;;;;;;;;;8.20;99.90;;;;;;5009777;28;19953;-93
2022/03/03 03:31:29;;;;;;;;;;;8.30;99.90;;;;;;4991282;28;19926;-94
2022/03/03 03:34:03;;;;;;;;;;;9.30;99.90;;;;;;5009024;28;19926;-93
2022/03/03 03:39:58;;;;;;;;;;;8.40;99.90;;;;;;5005424;28;19971;-93
2022/03/03 03:42:50;;;;;;;;;;;8.40;99.90;;;;;;5008811;28;19926;-92
2022/03/03 03:45:27;;;;;;;;;;;8.00;99.90;;;;;;5008961;28;19992;-92
2022/03/03 03:48:07;;;;;;;;;;;7.80;99.90;;;;;;5009025;28;19926;-93
2022/03/03 03:50:49;;;;;;;;;;;8.10;99.90;;;;;;5008698;28;19961;-93
2022/03/03 03:53:17;;;;;;;;;;;8.60;99.90;;;;;;5038672;23;19930;-94
2022/03/03 03:55:58;;;;;;;;;;;8.40;99.90;;;;;;5008817;28;19957;-93
2022/03/03 03:58:35;;;;;;;;;;;8.20;99.90;;;;;;5009709;28;19926;-93
2022/03/03 04:01:30;;;;;;;;;;;;;;;;;;;;;
2022/03/03 04:04:19;;;;;;;;;;;8.40;99.90;;;;;;5018087;28;19925;-92
2022/03/03 04:06:56;;;;;;;;;;;8.00;99.90;;;;;;5046876;23;20434;-94
2022/03/03 04:09:34;;;;;;;;;;;9.00;99.90;;;;;;5009087;28;19925;-94
2022/03/03 04:12:13;;;;;;;;;;;8.40;99.90;;;;;;4968061;29;19969;-92
2022/03/03 04:15:00;;;;;;;;;;;6.70;99.90;;;;;;4970252;29;19930;-94
2022/03/03 04:17:50;;;;;;;;;;;7.70;99.90;;;;;;4970188;29;19927;-94
2022/03/03 04:20:23;;;;;;;;;;;8.30;99.90;;;;;;4969995;29;19950;-94
2022/03/03 04:22:52;;;;;;;;;;;10.50;99.90;;;;;;4969862;29;19953;-92
2022/03/03 04:25:21;;;;;;;;;;;7.90;99.90;;;;;;4969197;29;19926;-93
2022/03/03 04:27:51;;;;;;;;;;;7.90;99.90;;;;;;4969101;29;19934;-92
2022/03/03 04:30:22;;;;;;;;;;;7.50;99.90;;;;;;4969062;29;20020;-93
2022/03/03 04:32:51;;;;;;;;;;;8.30;99.90;;;;;;4969173;29;20017;-92
2022/03/03 04:35:19;;;;;;;;;;;7.90;99.90;;;;;;5034945;23;19926;-93
2022/03/03 04:37:53;;;;;;;;;;;7.00;99.90;;;;;;5007596;28;19964;-93
2022/03/03 04:40:23;;;;;;;;;;;8.30;99.90;;;;;;5003461;28;19948;-93
2022/03/03 04:42:51;;;;;;;;;;;7.90;99.90;;;;;;4999098;28;19962;-92
2022/03/03 04:45:25;;;;;;;;;;;8.10;99.90;;;;;;4988711;28;19933;-92
2022/03/03 04:47:58;;;;;;;;;;;8.00;99.90;;;;;;4988406;28;19926;-93
2022/03/03 04:50:26;;;;;;;;;;;8.00;99.90;;;;;;4988217;28;19933;-91
2022/03/03 04:52:57;;;;;;;;;;;8.30;99.90;;;;;;4987834;28;19926;-92
2022/03/03 04:55:30;;;;;;;;;;;8.50;99.90;;;;;;4988144;28;20381;-91
2022/03/03 04:58:02;;;;;;;;;;;8.10;99.90;;;;;;4995015;28;20395;-90
2022/03/03 05:00:36;;;;;;;;;;;6.40;99.90;;;;;;5008453;28;19926;-91
2022/03/03 05:03:06;;;;;;;;;;;7.70;99.90;;;;;;5007658;28;19949;-92
2022/03/03 05:05:41;;;;;;;;;;;9.30;99.90;;;;;;5005917;28;20024;-93
2022/03/03 05:08:13;;;;;;;;;;;8.00;99.90;;;;;;5008731;28;19933;-92
2022/03/03 05:10:46;;;;;;;;;;;7.90;99.90;;;;;;5008584;28;19926;-92
2022/03/03 05:13:14;;;;;;;;;;;8.00;99.90;;;;;;5007435;28;19925;-92
2022/03/03 05:18:31;;;;;;;;;;;7.90;99.90;;;;;;5004712;23;19950;-93
2022/03/03 05:21:10;;;;;;;;;;;8.30;99.90;;;;;;5008382;28;19926;-93
2022/03/03 05:23:43;;;;;;;;;;;6.80;99.90;;;;;;5008841;28;20020;-94
2022/03/03 05:26:11;;;;;;;;;;;6.90;99.90;;;;;;5038315;23;19930;-93
2022/03/03 05:28:40;;;;;;;;;;;5.20;99.90;;;;;;4990255;28;19925;-93
2022/03/03 05:31:10;;;;;;;;;;;7.80;99.90;;;;;;5009303;28;20327;-93
2022/03/03 05:33:48;;;;;;;;;;;7.80;99.90;;;;;;5008580;28;19989;-93
2022/03/03 05:36:24;;;;;;;;;;;7.50;99.90;;;;;;5008471;28;19937;-92
2022/03/03 05:38:58;;;;;;;;;;;7.90;99.90;;;;;;5006190;23;19949;-93
2022/03/03 05:41:34;;;;;;;;;;;8.00;99.90;;;;;;5024329;23;19933;-93
2022/03/03 05:44:04;;;;;;;;;;;7.20;99.90;;;;;;5007640;28;19933;-93
2022/03/03 05:49:38;;;;;;;;;;;7.80;99.90;;;;;;5073416;23;19930;-92
2022/03/03 05:52:11;;;;;;;;;;;7.80;99.90;;;;;;5062940;23;19918;-92
2022/03/03 05:57:22;;;;;;;;;;;7.30;99.90;;;;;;5008743;28;19925;-93
2022/03/03 06:00:06;;;;;;;;;;;8.50;99.90;;;;;;4990856;28;19965;-93
2022/03/03 06:05:23;;;;;;;;;;;8.00;99.90;;;;;;5008297;28;19933;-93
2022/03/03 06:07:56;;;;;;;;;;;7.40;99.90;;;;;;5014362;23;19965;-91
2022/03/03 06:10:37;;;;;;;;;;;7.70;99.90;;;;;;5007157;28;19926;-91
2022/03/03 06:16:39;;;;;;;;;;;7.40;99.90;;;;;;5045191;23;19932;-93
2022/03/03 06:19:24;;;;;;;;;;;7.70;99.90;;;;;;5008052;28;19949;-92
2022/03/03 06:24:50;;;;;;;;;;;7.60;99.90;;;;;;5009235;28;20391;-93
2022/03/03 06:30:49;;;;;;;;;;;8.10;99.90;;;;;;5305216;23;19912;-92
2022/03/03 06:41:41;;;;;;;;;;;8.30;99.90;;;;;;5023058;23;19926;-91
2022/03/03 06:44:24;;;;;;;;;;;7.80;99.90;;;;;;5012046;28;19933;-91
2022/03/03 06:47:00;;;;;;;;;;;8.20;99.90;;;;;;5052831;23;19985;-92
2022/03/03 06:49:32;;;;;;;;;;;8.40;99.90;;;;;;5011640;28;19933;-92
2022/03/03 06:54:52;;;;;;;;;;;;;;;;;;;;;
2022/03/03 06:57:31;;;;;;;;;;;8.70;99.90;;;;;;5010005;28;19926;-90
2022/03/03 07:00:09;;;;;;;;;;;7.70;99.90;;;;;;5010694;28;20009;-90
2022/03/03 07:02:38;;;;;;;;;;;8.10;99.90;;;;;;5009614;28;19951;-92
2022/03/03 07:05:10;;;;;;;;;;;8.10;99.90;;;;;;5010867;28;19932;-92
2022/03/03 07:07:38;;;;;;;;;;;7.90;99.90;;;;;;5029585;23;20277;-93
2022/03/03 07:10:09;;;;;;;;;;;8.10;99.90;;;;;;4994291;28;19941;-93
2022/03/03 07:12:49;;;;;;;;;;;7.90;99.90;;;;;;5052244;23;19932;-92
2022/03/03 07:15:27;;;;;;;;;;;7.90;99.90;;;;;;5068561;23;19930;-92
2022/03/03 07:18:04;;;;;;;;;;;7.80;99.90;;;;;;4953152;29;19926;-93
2022/03/03 07:20:45;;;;;;;;;;;8.50;99.90;;;;;;4972588;29;19926;-92
2022/03/03 07:23:14;;;;;;;;;;;8.20;99.90;;;;;;4972251;29;19938;-93
2022/03/03 07:25:57;;;;;;;;;;;7.50;99.90;;;;;;4984058;23;19922;-93
2022/03/03 07:31:43;;;;;;;;;;;7.90;99.90;;;;;;5010921;28;19930;-94
2022/03/03 07:34:27;;;;;;;;;;;7.90;99.90;;;;;;5011116;28;19953;-95
2022/03/03 07:37:02;;;;;;;;;;;8.40;99.90;;;;;;5010436;28;19926;-92
2022/03/03 07:39:42;;;;;;;;;;;8.90;99.90;;;;;;5011823;28;19926;-92
2022/03/03 07:45:07;;;;;;;;;;;8.00;99.90;;;;;;5008098;28;19933;-95
2022/03/03 07:47:58;;;;;;;;;;;8.60;99.90;;;;;;4988986;28;19927;-93
2022/03/03 07:50:29;;;;;;;;;;;8.10;99.90;;;;;;5006827;28;19930;-93
2022/03/03 07:53:32;;;;;;;;;;;8.50;99.90;;;;;;5011136;28;19926;-95
2022/03/03 08:38:55;;;;;;;;;;;9.00;99.90;;;;;;6177593;23;19927;-93
2022/03/03 08:44:05;;;;;;;;;;;8.70;99.90;;;;;;6176381;23;20543;-90
2022/03/03 08:46:46;;;;;;;;;;;8.80;99.90;;;;;;6179904;23;19931;-93
2022/03/03 08:49:17;;;;;;;;;;;9.20;99.90;;;;;;6176444;23;19920;-92
2022/03/03 08:52:03;;;;;;;;;;;9.00;99.90;;;;;;6182088;23;19921;-91
2022/03/03 08:57:18;;;;;;;;;;;9.00;99.90;;;;;;6173534;23;19920;-90
2022/03/03 08:59:51;;;;;;;;;;;9.60;99.90;;;;;;6167884;23;19921;-91
2022/03/03 09:02:24;;;;;;;;;;;8.00;99.90;;;;;;6162722;23;19960;-90
2022/03/03 09:04:55;;;;;;;;;;;8.30;99.90;;;;;;6176274;23;19926;-93
2022/03/03 09:10:11;;;;;;;;;;;9.40;99.90;;;;;;6164145;23;20229;-92
2022/03/03 09:18:40;;;;;;;;;;;9.80;99.90;;;;;;6179049;23;20196;-89
2022/03/03 09:21:11;;;;;;;;;;;9.30;99.90;;;;;;6198479;23;19967;-92
2022/03/03 09:23:46;;;;;;;;;;;9.70;99.90;;;;;;6194954;23;19991;-92
2022/03/03 09:26:29;;;;;;;;;;;9.30;99.90;;;;;;6195212;23;19924;-93
2022/03/03 09:28:58;;;;;;;;;;;11.80;99.90;;;;;;6190730;23;19920;-94
2022/03/03 09:34:21;;;;;;;;;;;9.40;99.90;;;;;;6195042;23;20289;-94
2022/03/03 09:37:01;;;;;;;;;;;;;;;;;;;;;
2022/03/03 09:39:28;;;;;;;;;;;9.20;99.90;;;;;;6197332;23;19924;-92
2022/03/03 09:41:57;;;;;;;;;;;7.60;99.90;;;;;;6191172;23;19921;-92
2022/03/03 09:47:30;;;;;;;;;;;9.70;99.90;;;;;;6138865;23;19921;-94
2022/03/03 09:50:31;;;;;;;;;;;9.60;99.90;;;;;;6196132;23;20248;-94
2022/03/03 09:53:16;;;;;;;;;;;8.20;99.90;;;;;;6190440;23;19982;-92
2022/03/03 09:59:01;;;;;;;;;;;9.70;99.90;;;;;;6167371;23;19920;-93
2022/03/03 10:01:47;;;;;;;;;;;10.50;99.90;;;;;;6178381;23;19935;-92
2022/03/03 10:13:56;;;;;;;;;;;9.70;99.90;;;;;;6025901;23;19921;-95
2022/03/03 10:16:29;;;;;;;;;;;9.80;99.90;;;;;;6148856;23;19928;-93
2022/03/03 10:21:47;;;;;;;;;;;9.70;99.90;;;;;;6192853;23;19956;-94
2022/03/03 10:27:35;;;;;;;;;;;;;;;;;;;;;
2022/03/03 10:30:07;;;;;;;;;;;9.80;99.90;;;;;;6191767;23;20493;-94
2022/03/03 10:32:39;;;;;;;;;;;9.30;99.90;;;;;;6189097;23;19924;-85
2022/03/03 10:35:40;;;;;;;;;;;9.30;99.90;;;;;;6192516;23;20284;-92
2022/03/03 10:38:11;;;;;;;;;;;9.70;99.90;;;;;;6190994;23;19920;-95
2022/03/03 10:40:39;;;;;;;;;;;10.30;99.90;;;;;;6194139;23;19947;-93
2022/03/03 10:43:09;;;;;;;;;;;9.20;99.90;;;;;;6191314;23;19990;-91
2022/03/03 10:46:03;;;;;;;;;;;9.60;99.90;;;;;;6192319;23;19948;-92
2022/03/03 10:48:49;;;;;;;;;;;9.20;99.90;;;;;;6078469;23;20296;-91
2022/03/03 10:51:57;;;;;;;;;;;9.80;99.90;;;;;;6077563;23;19922;-91
2022/03/03 10:54:29;;;;;;;;;;;9.40;99.90;;;;;;6076361;23;19944;-93
2022/03/03 10:57:00;;;;;;;;;;;7.50;99.90;;;;;;6077942;23;19922;-92
2022/03/03 11:02:29;;;;;;;;;;;9.80;99.90;;;;;;5981273;23;19928;-91
2022/03/03 11:05:20;;;;;;;;;;;9.80;99.90;;;;;;6075537;23;20341;-93
2022/03/03 11:07:51;;;;;;;;;;;9.50;99.90;;;;;;6043393;23;19922;-92
2022/03/03 11:10:47;;;;;;;;;;;9.50;99.90;;;;;;6076940;23;20326;-93
2022/03/03 11:31:30;;;;;;;;;;;;;;;;;;;;;
2022/03/03 11:37:15;;;;;;;;;;;10.80;99.90;;;;;;6225166;23;20034;-92
2022/03/03 11:40:03;;;;;;;;;;;8.70;99.90;;;;;;6227462;23;20353;-90
2022/03/03 11:42:34;;;;;;;;;;;10.10;99.90;;;;;;6227403;23;20363;-90
2022/03/03 11:45:17;;;;;;;;;;;10.30;99.90;;;;;;6227692;23;19934;-91
2022/03/03 11:47:48;;;;;;;;;;;10.30;99.90;;;;;;6227597;23;19935;-89
2022/03/03 11:50:27;;;;;;;;;;;10.10;99.90;;;;;;6212009;23;19928;-89
2022/03/03 11:53:15;;;;;;;;;;;9.50;99.90;;;;;;6224326;23;19920;-91
2022/03/03 11:55:55;;;;;;;;;;;9.90;99.90;;;;;;6217710;23;19920;-90
2022/03/03 11:58:32;;;;;;;;;;;9.30;99.90;;;;;;6197749;23;19919;-90
2022/03/03 12:01:09;;;;;;;;;;;9.70;99.90;;;;;;6225554;23;19924;-90
2022/03/03 12:03:53;;;;;;;;;;;12.50;99.90;;;;;;6228183;23;19931;-91
2022/03/03 12:06:23;;;;;;;;;;;10.10;99.90;;;;;;6221707;23;19920;-91
2022/03/03 12:08:53;;;;;;;;;;;10.10;99.90;;;;;;6218455;23;20356;-85
2022/03/03 12:11:28;;;;;;;;;;;10.10;99.90;;;;;;6205814;23;19920;-85
2022/03/03 12:14:00;;;;;;;;;;;9.70;99.90;;;;;;6218118;23;19920;-91
2022/03/03 12:16:37;;;;;;;;;;;9.60;99.90;;;;;;6217277;23;19955;-90
2022/03/03 12:19:22;;;;;;;;;;;9.50;99.90;;;;;;6214381;23;19999;-92
2022/03/03 12:25:07;;;;;;;;;;;11.50;99.90;;;;;;6224089;23;19954;-92
2022/03/03 12:28:01;;;;;;;;;;;8.30;99.90;;;;;;6225753;23;19920;-91
2022/03/03 12:30:44;;;;;;;;;;;9.80;99.90;;;;;;6216943;23;19946;-93
2022/03/03 12:33:27;;;;;;;;;;;9.80;99.90;;;;;;6215831;23;20007;-91
2022/03/03 12:36:01;;;;;;;;;;;10.00;99.90;;;;;;6200227;23;19959;-92
2022/03/03 12:38:29;;;;;;;;;;;10.90;99.90;;;;;;6214333;23;19952;-92
2022/03/03 12:40:56;;;;;;;;;;;9.90;99.90;;;;;;6223338;23;19944;-91
2022/03/03 12:43:38;;;;;;;;;;;10.20;99.90;;;;;;6223452;23;20119;-90
2022/03/03 12:46:09;;;;;;;;;;;9.90;99.90;;;;;;6222444;23;20007;-91
2022/03/03 12:48:41;;;;;;;;;;;10.30;99.90;;;;;;6222197;23;20297;-89
2022/03/03 12:51:24;;;;;;;;;;;9.80;99.90;;;;;;6221500;23;19920;-92
2022/03/03 12:53:54;;;;;;;;;;;11.70;99.90;;;;;;6207951;23;19935;-92
2022/03/03 12:56:26;;;;;;;;;;;8.40;99.90;;;;;;6220007;23;19924;-91
2022/03/03 12:58:55;;;;;;;;;;;9.90;99.90;;;;;;6225940;23;19924;-92
2022/03/03 13:01:22;;;;;;;;;;;10.30;99.90;;;;;;6225778;23;19962;-91
2022/03/03 13:03:55;;;;;;;;;;;10.00;99.90;;;;;;6227797;23;19963;-91
2022/03/03 13:06:23;;;;;;;;;;;10.50;99.90;;;;;;6226790;23;19947;-88
2022/03/03 13:08:59;;;;;;;;;;;12.40;99.90;;;;;;6231708;23;19920;-85
2022/03/03 13:11:53;;;;;;;;;;;10.10;99.90;;;;;;6228967;23;19920;-92
2022/03/03 13:14:52;;;;;;;;;;;10.30;99.90;;;;;;6226445;23;19967;-93
2022/03/03 13:17:53;;;;;;;;;;;10.60;99.90;;;;;;6221702;23;19966;-93
2022/03/03 13:23:32;;;;;;;;;;;10.40;99.90;;;;;;6209745;23;19931;-92
2022/03/03 13:29:40;;;;;;;;;;;;;;;;;;;;;
2022/03/03 13:35:43;;;;;;;;;;;11.70;99.90;;;;;;6160219;23;19920;-91
2022/03/03 13:38:18;;;;;;;;;;;10.50;99.90;;;;;;6220619;23;20317;-92
2022/03/03 13:41:23;;;;;;;;;;;10.40;99.90;;;;;;6223926;23;19920;-93
2022/03/03 13:44:11;;;;;;;;;;;10.80;99.90;;;;;;6225847;23;20323;-90
2022/03/03 13:53:12;;;;;;;;;;;10.90;99.90;;;;;;6226422;23;19947;-89
2022/03/03 13:58:23;;;;;;;;;;;10.60;99.90;;;;;;6220156;23;20000;-87
2022/03/03 14:00:50;;;;;;;;;;;10.70;99.90;;;;;;6224718;23;19927;-88
2022/03/03 14:03:18;;;;;;;;;;;10.30;99.90;;;;;;6219410;23;19920;-90
2022/03/03 14:05:52;;;;;;;;;;;10.80;99.90;;;;;;6221194;23;20284;-90
2022/03/03 14:11:30;;;;;;;;;;;10.60;99.90;;;;;;6218526;23;19924;-91
2022/03/03 14:14:01;;;;;;;;;;;10.40;99.90;;;;;;6223640;23;20332;-88
2022/03/03 14:16:31;;;;;;;;;;;8.40;99.90;;;;;;6224542;23;19927;-93
2022/03/03 14:19:05;;;;;;;;;;;10.20;99.90;;;;;;6228054;23;19924;-92
2022/03/03 14:21:46;;;;;;;;;;;10.60;99.90;;;;;;6227504;23;20335;-92
2022/03/03 14:24:18;;;;;;;;;;;13.10;99.90;;;;;;6201450;23;20359;-92
2022/03/03 14:26:52;;;;;;;;;;;10.30;99.90;;;;;;6230020;23;19919;-92
2022/03/03 14:29:25;;;;;;;;;;;11.40;99.90;;;;;;6228128;23;19920;-90
2022/03/03 14:31:57;;;;;;;;;;;10.20;99.90;;;;;;6203198;23;19920;-92
2022/03/03 14:34:29;;;;;;;;;;;10.60;99.90;;;;;;6227720;23;19924;-92
2022/03/03 14:36:59;;;;;;;;;;;10.60;99.90;;;;;;6227200;23;19919;-92
2022/03/03 14:39:33;;;;;;;;;;;11.20;99.90;;;;;;6227373;23;19920;-93
2022/03/03 14:42:39;;;;;;;;;;;;;;;;;;;;;
2022/03/03 14:45:23;;;;;;;;;;;10.40;99.90;;;;;;6229720;23;19920;-92
2022/03/03 14:47:58;;;;;;;;;;;10.50;99.90;;;;;;6228498;23;19924;-92
2022/03/03 14:50:29;;;;;;;;;;;10.60;99.90;;;;;;6220875;23;19927;-91
2022/03/03 14:53:01;;;;;;;;;;;10.20;99.90;;;;;;6226499;23;19943;-94
2022/03/03 14:55:30;;;;;;;;;;;11.40;99.90;;;;;;6226909;23;19966;-89
2022/03/03 14:58:06;;;;;;;;;;;10.10;99.90;;;;;;6231612;23;20019;-92
2022/03/03 15:00:34;;;;;;;;;;;10.40;99.90;;;;;;6226855;23;19950;-89
2022/03/03 15:03:02;;;;;;;;;;;10.30;99.90;;;;;;6210632;23;19982;-88
2022/03/03 15:05:28;;;;;;;;;;;9.90;99.90;;;;;;6228509;23;19927;-88
2022/03/03 15:07:56;;;;;;;;;;;9.90;99.90;;;;;;6223528;23;20319;-88
2022/03/03 15:10:45;;;;;;;;;;;9.90;99.90;;;;;;6222547;23;19923;-95
2022/03/03 15:16:31;;;;;;;;;;;11.00;99.90;;;;;;6219410;23;19924;-91
2022/03/03 15:22:09;;;;;;;;;;;9.30;99.90;;;;;;6225003;23;19919;-91
2022/03/03 15:24:36;;;;;;;;;;;10.10;99.90;;;;;;6218565;23;19930;-90
2022/03/03 15:27:24;;;;;;;;;;;10.40;99.90;;;;;;6209466;23;19984;-89
2022/03/03 15:29:59;;;;;;;;;;;8.00;99.90;;;;;;6200000;23;19924;-88
2022/03/03 15:32:28;;;;;;;;;;;10.50;99.90;;;;;;6214954;23;19931;-90
2022/03/03 15:37:57;;;;;;;;;;;10.10;99.90;;;;;;6212425;23;20386;-88
2022/03/03 15:40:24;;;;;;;;;;;10.30;99.90;;;;;;6212867;23;20294;-89
2022/03/03 15:42:52;;;;;;;;;;;10.40;99.90;;;;;;6212920;23;19923;-90
2022/03/03 15:45:36;;;;;;;;;;;10.10;99.90;;;;;;6217899;23;20335;-91
2022/03/03 15:48:33;;;;;;;;;;;10.70;99.90;;;;;;6218649;23;19924;-92
2022/03/03 15:51:08;;;;;;;;;;;10.30;99.90;;;;;;6220731;23;19924;-92
2022/03/03 15:56:33;;;;;;;;;;;10.30;99.90;;;;;;6121625;23;19968;-91
2022/03/03 15:59:01;;;;;;;;;;;9.90;99.90;;;;;;6130033;23;19928;-91
2022/03/03 16:01:28;;;;;;;;;;;9.40;99.90;;;;;;6221763;23;19927;-88
2022/03/03 16:03:56;;;;;;;;;;;9.80;99.90;;;;;;6223832;23;20343;-90
2022/03/03 16:06:32;;;;;;;;;;;9.90;99.90;;;;;;6224573;23;19920;-91
2022/03/03 16:08:59;;;;;;;;;;;12.40;99.90;;;;;;6225112;23;19920;-91
2022/03/03 16:11:26;;;;;;;;;;;10.30;99.90;;;;;;6223818;23;19920;-90
2022/03/03 16:13:56;;;;;;;;;;;10.20;99.90;;;;;;6224715;23;19920;-88
2022/03/03 16:16:51;;;;;;;;;;;10.20;99.90;;;;;;6223449;23;19934;-92
2022/03/03 16:19:18;;;;;;;;;;;10.30;99.90;;;;;;6217409;23;19943;-92
2022/03/03 16:21:48;;;;;;;;;;;10.30;99.90;;;;;;6201151;23;19920;-91
2022/03/03 16:24:15;;;;;;;;;;;10.30;99.90;;;;;;6198803;23;19920;-91
2022/03/03 16:26:43;;;;;;;;;;;10.10;99.90;;;;;;6198704;23;19999;-91
2022/03/03 16:29:13;;;;;;;;;;;9.70;99.90;;;;;;6195043;23;19927;-91
2022/03/03 16:32:22;;;;;;;;;;;10.50;99.90;;;;;;6196744;23;20429;-91
2022/03/03 16:34:53;;;;;;;;;;;12.70;99.90;;;;;;6197063;23;19920;-91
2022/03/03 16:37:25;;;;;;;;;;;10.10;99.90;;;;;;6208357;23;19920;-92
2022/03/03 16:40:09;;;;;;;;;;;9.80;99.90;;;;;;6227388;23;19948;-91
2022/03/03 16:43:05;;;;;;;;;;;10.60;99.90;;;;;;6229278;23;19947;-92
2022/03/03 16:45:43;;;;;;;;;;;9.90;99.90;;;;;;6151115;23;19921;-93
2022/03/03 16:48:13;;;;;;;;;;;10.50;99.90;;;;;;6226791;23;19924;-92
2022/03/03 16:53:23;;;;;;;;;;;10.30;99.90;;;;;;6227070;23;19920;-90
2022/03/03 16:55:52;;;;;;;;;;;10.30;99.90;;;;;;6228122;23;19920;-91
2022/03/03 16:59:06;;;;;;;;;;;;;;;;;;;;;
2022/03/03 17:01:40;;;;;;;;;;;9.60;99.90;;;;;;6230782;23;19924;-92
2022/03/03 17:10:18;;;;;;;;;;;10.90;99.90;;;;;;6215902;23;19919;-92
2022/03/03 17:12:59;;;;;;;;;;;;;;;;;;;;;
2022/03/03 17:15:32;;;;;;;;;;;9.90;99.90;;;;;;6229526;23;19920;-92
2022/03/03 17:20:49;;;;;;;;;;;7.70;99.90;;;;;;6227940;23;19924;-91
2022/03/03 17:23:18;;;;;;;;;;;9.80;99.90;;;;;;6216930;23;19931;-94
2022/03/03 17:26:13;;;;;;;;;;;9.50;99.90;;;;;;6193186;23;19942;-93
2022/03/03 17:39:52;;;;;;;;;;;9.40;99.90;;;;;;6140213;23;19957;-92
2022/03/03 17:42:22;;;;;;;;;;;10.30;99.90;;;;;;6142015;23;19921;-91
2022/03/03 17:44:53;;;;;;;;;;;10.30;99.90;;;;;;6139781;23;19936;-92
2022/03/03 17:47:23;;;;;;;;;;;9.30;99.90;;;;;;6142703;23;19921;-92
2022/03/03 17:49:58;;;;;;;;;;;9.50;99.90;;;;;;6139695;23;19921;-91
2022/03/03 17:52:28;;;;;;;;;;;9.50;99.90;;;;;;6138881;23;20006;-91
2022/03/03 17:55:05;;;;;;;;;;;9.80;99.90;;;;;;6141091;23;20364;-91
2022/03/03 17:57:34;;;;;;;;;;;9.50;99.90;;;;;;6138938;23;19920;-91
2022/03/03 18:00:02;;;;;;;;;;;9.00;99.90;;;;;;6140129;23;19921;-93
2022/03/03 18:02:29;;;;;;;;;;;9.30;99.90;;;;;;6139258;23;19921;-89
2022/03/03 18:04:58;;;;;;;;;;;9.00;99.90;;;;;;6138056;23;19940;-93
2022/03/03 18:07:27;;;;;;;;;;;9.50;99.90;;;;;;6141378;23;19964;-93
2022/03/03 18:09:59;;;;;;;;;;;9.40;99.90;;;;;;6143871;23;19929;-93
2022/03/03 18:12:27;;;;;;;;;;;9.30;99.90;;;;;;6140961;23;19925;-92
2022/03/03 18:14:54;;;;;;;;;;;8.80;99.90;;;;;;6141828;23;19925;-92
2022/03/03 18:17:23;;;;;;;;;;;8.70;99.90;;;;;;6138877;23;19949;-92
2022/03/03 18:19:51;;;;;;;;;;;9.00;99.90;;;;;;6141943;23;19947;-92
2022/03/03 18:22:20;;;;;;;;;;;8.40;99.90;;;;;;6138926;23;19921;-92
2022/03/03 18:24:57;;;;;;;;;;;8.40;99.90;;;;;;6139312;23;19921;-92
2022/03/03 18:27:25;;;;;;;;;;;8.40;99.90;;;;;;6141609;23;19929;-92
2022/03/03 18:29:53;;;;;;;;;;;8.30;99.90;;;;;;6141507;23;19921;-93
2022/03/03 18:32:21;;;;;;;;;;;8.30;99.90;;;;;;6141885;23;20384;-93
2022/03/03 18:34:51;;;;;;;;;;;8.40;99.90;;;;;;6140959;23;19944;-91
2022/03/03 18:37:19;;;;;;;;;;;7.70;99.90;;;;;;6141008;23;19964;-92
2022/03/03 18:39:48;;;;;;;;;;;8.00;99.90;;;;;;6141267;23;19920;-92
2022/03/03 18:42:17;;;;;;;;;;;8.20;99.90;;;;;;6140739;23;19932;-92
2022/03/03 18:44:56;;;;;;;;;;;8.50;99.90;;;;;;6141203;23;19965;-92
2022/03/03 18:50:15;;;;;;;;;;;7.80;99.90;;;;;;6112470;23;19945;-92
2022/03/03 18:52:44;;;;;;;;;;;8.50;99.90;;;;;;6112301;23;19921;-92
2022/03/03 18:55:13;;;;;;;;;;;8.70;99.90;;;;;;6112504;23;19933;-92
2022/03/03 18:57:41;;;;;;;;;;;7.90;99.90;;;;;;6159205;23;19920;-91
2022/03/03 19:00:12;;;;;;;;;;;6.30;99.90;;;;;;6230780;23;19920;-92
2022/03/03 19:02:55;;;;;;;;;;;7.30;99.90;;;;;;6151519;23;20396;-92
2022/03/03 19:05:27;;;;;;;;;;;8.20;99.90;;;;;;6142468;23;19920;-92
2022/03/03 19:08:00;;;;;;;;;;;8.00;99.90;;;;;;6142152;23;19921;-90
2022/03/03 19:10:33;;;;;;;;;;;7.70;99.90;;;;;;6137287;23;19927;-92
2022/03/03 19:13:14;;;;;;;;;;;10.10;99.90;;;;;;6138574;23;19924;-92
2022/03/03 19:15:46;;;;;;;;;;;7.70;99.90;;;;;;6140638;23;19920;-91
2022/03/03 19:18:15;;;;;;;;;;;7.50;99.90;;;;;;6140836;23;19929;-92
2022/03/03 19:20:44;;;;;;;;;;;7.80;99.90;;;;;;6139958;23;19921;-91
2022/03/03 19:23:16;;;;;;;;;;;8.00;99.90;;;;;;6139958;23;19969;-91
2022/03/03 19:25:44;;;;;;;;;;;7.80;99.90;;;;;;6140558;23;19948;-92
2022/03/03 19:28:13;;;;;;;;;;;7.10;99.90;;;;;;6140801;23;19944;-91
2022/03/03 19:30:41;;;;;;;;;;;8.10;99.90;;;;;;6141467;23;19933;-90
2022/03/03 19:36:01;;;;;;;;;;;9.20;99.90;;;;;;6142705;23;19939;-92
2022/03/03 19:38:32;;;;;;;;;;;7.50;99.90;;;;;;6141226;23;19925;-92